Latest Weather Observations for Tennant Creek

IDD60801

Issued at 11:41 pm CST Sunday 17 February 2019 (issued every 10 minutes, with the page automatically refreshed every 10 minutes)

About weather observations | Map of weather stations | Latest weather observations for NT | Other Formats
Station Details ID: 015135 Name: TENNANT CREEK AIRPORT Lat: -19.64 Lon: 134.18 Height: 375.7 m
Data from the previous 72 hours. | See also: Recent months at Tennant Creek
Date/Time
CST
Temp
°C
App
Temp
°C
Dew
Point
°C
Rel
Hum
%
Delta-T
°C
Wind Press
QNH
hPa
Press
MSL
hPa
Rain since
9am
mm
Dir  Spd
km/h
Gust
km/h
Spd
kts
Gust
kts
17/11:30pm 29.9 25.6 -5.0 10 15.6 E 9 13 5 7 1009.4 1006.4 0.0
17/11:00pm 29.5 24.8 -5.3 10 15.4 E 11 11 6 6 1009.6 1006.6 0.0
17/10:30pm 29.3 24.9 -5.4 10 15.3 E 9 11 5 6 1009.5 1006.5 0.0
17/10:00pm 30.7 26.3 -5.8 9 16.1 ESE 9 9 5 5 1009.3 1006.3 0.0
17/09:30pm 31.7 27.8 -5.0 9 16.6 SE 7 7 4 4 1008.9 1006.0 0.0
17/09:00pm 33.9 29.4 -6.7 7 18.2 SE 9 11 5 6 1008.5 1005.6 0.0
17/08:30pm 35.5 30.6 -7.5 6 19.3 SSE 11 13 6 7 1008.1 1005.1 0.0
17/08:00pm 35.5 30.9 -7.5 6 19.2 SSE 9 11 5 6 1007.9 1004.9 0.0
17/07:30pm 36.7 32.6 -6.7 6 19.9 SSE 7 9 4 5 1007.4 1004.4 0.0
17/07:00pm 38.2 33.2 -8.0 5 20.9 SSW 11 15 6 8 1007.1 1004.1 0.0
17/06:30pm 39.3 34.0 -7.2 5 21.5 SW 13 17 7 9 1006.7 1003.7 0.0
17/06:00pm 39.6 34.3 -7.0 5 21.7 SSW 13 19 7 10 1006.5 1003.5 0.0
17/05:30pm 40.1 35.2 -6.7 5 22.0 SSE 11 28 6 15 1006.3 1003.4 0.0
17/05:00pm 40.3 34.9 -4.1 6 21.6 SE 15 20 8 11 1006.6 1003.6 0.0
17/04:30pm 40.4 35.0 -4.1 6 21.8 S 15 24 8 13 1006.9 1003.9 0.0
17/04:00pm 40.0 34.5 -2.3 7 21.1 SE 17 26 9 14 1007.0 1004.0 0.0
17/03:30pm 39.8 35.0 -2.4 7 21.1 ESE 13 24 7 13 1007.6 1004.6 0.0
17/03:00pm 39.2 33.6 -2.9 7 20.8 S 17 30 9 16 1007.9 1004.9 0.0
17/02:30pm 39.4 36.0 -0.9 8 20.5 ENE 7 20 4 11 1008.3 1005.4 0.0
17/02:00pm 39.3 34.9 0.6 9 20.1 NE 13 22 7 12 1008.8 1005.9 0.0
17/01:30pm 39.4 35.1 0.7 9 20.2 ENE 13 24 7 13 1009.6 1006.6 0.0
17/01:00pm 38.6 33.4 0.1 9 19.8 NW 17 33 9 18 1010.2 1007.2 0.0
17/12:30pm 38.1 34.2 1.2 10 19.3 ENE 11 19 6 10 1010.8 1007.9 0.0
17/12:00pm 37.3 32.2 0.6 10 18.9 NE 17 30 9 16 1011.3 1008.4 0.0
17/11:30am 38.1 33.8 1.2 10 19.2 ESE 13 20 7 11 1011.7 1008.8 0.0
17/11:00am 36.3 31.8 2.4 12 17.8 ENE 15 24 8 13 1012.3 1009.3 0.0
17/10:30am 35.5 32.8 3.9 14 16.9 ESE 7 11 4 6 1012.5 1009.5 0.0
17/10:00am 34.6 33.3 11.1 24 14.0 NE 9 11 5 6 1012.8 1009.8 0.0
17/09:30am 32.1 31.3 11.8 29 12.1 WNW 7 11 4 6 1013.1 1010.2 0.0
17/09:00am 31.0 30.1 11.4 30 11.6 SW 7 11 4 6 1013.1 1010.2 0.0
17/08:30am 29.9 28.2 8.3 26 12.1 NE 7 9 4 5 1013.0 1010.0 0.0
17/08:00am 28.6 24.8 -3.6 12 14.5 NE 7 9 4 5 1012.7 1009.7 0.0
17/07:30am 26.1 22.1 -5.5 12 13.5 ENE 7 9 4 5 1012.4 1009.4 0.0
17/07:00am 24.3 19.9 -5.8 13 12.6 E 9 9 5 5 1011.8 1008.9 0.0
17/06:30am 23.7 18.9 -6.3 13 12.4 ESE 11 15 6 8 1011.5 1008.6 0.0
17/06:00am 24.4 19.1 -6.8 12 12.8 E 13 15 7 8 1011.2 1008.3 0.0
17/05:30am 24.6 19.5 -5.6 13 12.7 E 13 15 7 8 1011.2 1008.3 0.0
17/05:00am 25.6 20.7 -7.0 11 13.5 ENE 11 13 6 7 1011.3 1008.4 0.0
17/04:30am 26.1 21.1 -7.9 10 13.9 NE 11 15 6 8 1011.0 1008.1 0.0
17/04:00am 26.9 20.7 -8.6 9 14.4 E 17 24 9 13 1010.8 1007.9 0.0
17/03:30am 27.1 21.3 -8.5 9 14.6 E 15 17 8 9 1010.4 1007.4 0.0
17/03:00am 28.3 23.0 -7.6 9 15.1 ESE 13 17 7 9 1010.4 1007.4 0.0
17/02:30am 27.7 22.1 -6.6 10 14.6 ESE 15 17 8 9 1010.7 1007.8 0.0
17/02:00am 27.9 22.7 -6.5 10 14.7 E 13 15 7 8 1011.0 1008.1 0.0
17/01:30am 28.9 23.2 -7.1 9 15.3 ESE 15 17 8 9 1011.3 1008.4 0.0
17/01:00am 29.9 24.7 -6.4 9 15.8 ESE 13 17 7 9 1011.6 1008.7 0.0
17/12:30am 31.2 24.8 -6.9 8 16.6 SE 19 26 10 14 1011.7 1008.8 0.0
17/12:00am 31.2 24.9 -5.4 9 16.4 SE 19 22 10 12 1011.8 1008.9 0.0
 
Date/Time
CST
Temp
°C
App
Temp
°C
Dew
Point
°C
Rel
Hum
%
Delta-T
°C
Wind Press
QNH
hPa
Press
MSL
hPa
Rain since
9am
mm
Dir  Spd
km/h
Gust
km/h
Spd
kts
Gust
kts
16/11:30pm 31.9 25.5 -6.4 8 16.9 SE 19 22 10 12 1012.1 1009.1 0.0
16/11:00pm 31.4 25.9 -5.2 9 16.4 ESE 15 19 8 10 1012.3 1009.3 0.0
16/10:30pm 29.0 24.7 -4.4 11 14.9 E 9 9 5 5 1011.8 1008.9 0.0
16/10:00pm 28.8 24.5 -4.6 11 14.8 ESE 9 9 5 5 1011.6 1008.7 0.0
16/09:30pm 30.1 25.8 -4.8 10 15.6 E 9 9 5 5 1011.4 1008.5 0.0
16/09:00pm 31.6 27.3 -5.1 9 16.6 E 9 11 5 6 1011.2 1008.3 0.0
16/08:30pm 34.1 28.9 -6.5 7 18.3 SSE 13 17 7 9 1010.7 1007.8 0.0
16/08:00pm 34.8 29.6 -6.0 7 18.6 SSE 13 15 7 8 1010.3 1007.3 0.0
16/07:30pm 35.8 31.5 -5.3 7 19.1 S 9 13 5 7 1010.0 1007.0 0.0
16/07:00pm 36.8 31.8 -4.6 7 19.6 S 13 17 7 9 1009.7 1006.7 0.0
16/06:30pm 38.1 33.9 -3.7 7 20.2 SW 9 15 5 8 1009.4 1006.4 0.0
16/06:00pm 38.0 31.7 -5.8 6 20.5 SSE 19 28 10 15 1009.1 1006.2 0.0
16/05:30pm 38.8 33.9 -3.2 7 20.6 SSW 13 24 7 13 1009.1 1006.2 0.0
16/05:00pm 38.4 33.5 -3.4 7 20.3 S 13 24 7 13 1009.0 1006.1 0.0
16/04:30pm 38.8 33.5 -3.2 7 20.6 S 15 24 8 13 1009.6 1006.6 0.0
16/04:00pm 38.0 32.3 -3.7 7 20.1 SSE 17 30 9 16 1009.9 1006.9 0.0
16/03:30pm 38.8 34.2 -1.3 8 20.2 SW 13 24 7 13 1010.1 1007.1 0.0
16/03:00pm 38.7 34.8 -1.4 8 20.2 NNW 9 17 5 9 1010.5 1007.5 0.0
16/02:30pm 37.9 33.6 -2.0 8 19.8 ENE 11 15 6 8 1011.0 1008.1 0.0
16/02:00pm 37.3 32.5 -2.4 8 19.5 NNE 13 26 7 14 1011.6 1008.7 0.0
16/01:30pm 37.1 32.3 -2.6 8 19.4 N 13 26 7 14 1012.2 1009.2 0.0
16/01:00pm 36.7 31.1 -2.9 8 19.2 ENE 17 24 9 13 1012.8 1009.8 0.0
16/12:30pm 35.2 29.7 -2.4 9 18.2 NE 17 32 9 17 1013.4 1010.5 0.0
16/12:00pm 35.4 29.1 -3.8 8 18.6 ENE 20 33 11 18 1014.0 1011.1 0.0
16/11:30am 34.8 27.5 -6.0 7 18.6 ENE 24 35 13 19 1014.5 1011.6 0.0
16/11:00am 34.1 26.8 -6.5 7 18.2 E 24 33 13 18 1015.2 1012.2 0.0
16/10:30am 33.3 25.2 -7.1 7 17.8 E 28 37 15 20 1015.6 1012.7 0.0
16/10:00am 32.4 23.6 -6.0 8 17.2 ESE 32 37 17 20 1015.9 1013.0 0.0
16/09:30am 31.5 23.8 -6.7 8 16.7 E 26 33 14 18 1016.0 1013.1 0.0
16/09:00am 30.2 21.4 -6.1 9 15.9 E 32 39 17 21 1015.9 1013.0 0.0
16/08:30am 28.7 20.5 -7.3 9 15.2 E 28 35 15 19 1015.6 1012.7 0.0
16/08:00am 26.6 18.9 -6.2 11 13.9 E 26 33 14 18 1015.5 1012.6 0.0
16/07:30am 25.4 18.2 -5.0 13 13.0 E 24 30 13 16 1015.3 1012.3 0.0
16/07:00am 24.5 17.6 -5.7 13 12.7 E 22 28 12 15 1015.0 1012.0 0.0
16/06:30am 24.0 17.8 -5.1 14 12.3 E 19 24 10 13 1014.9 1011.9 0.0
16/06:00am 24.2 18.0 -4.9 14 12.4 E 19 22 10 12 1014.6 1011.7 0.0
16/05:30am 24.9 19.0 -5.4 13 12.8 E 17 20 9 11 1014.4 1011.5 0.0
16/05:00am 25.7 19.2 -5.8 12 13.3 E 20 28 11 15 1014.1 1011.2 0.0
16/04:30am 26.4 19.9 -6.4 11 13.8 E 20 26 11 14 1013.8 1010.9 0.0
16/04:00am 27.2 19.8 -7.0 10 14.4 E 24 30 13 16 1013.5 1010.6 0.0
16/03:30am 27.6 19.5 -6.7 10 14.5 E 28 35 15 19 1013.5 1010.6 0.0
16/03:00am 28.2 20.1 -6.3 10 14.8 ESE 28 37 15 20 1013.3 1010.4 0.0
16/02:30am 28.3 21.1 -4.9 11 14.6 E 24 30 13 16 1013.5 1010.6 0.0
16/02:00am 28.6 21.8 -4.7 11 14.8 ESE 22 33 12 18 1013.5 1010.6 0.0
16/01:30am 29.4 22.6 -5.4 10 15.3 ESE 22 30 12 16 1013.8 1010.9 0.0
16/01:00am 30.2 23.1 -4.8 10 15.7 ESE 24 32 13 17 1013.9 1011.0 0.0
16/12:30am 30.9 24.2 -4.2 10 16.0 ESE 22 32 12 17 1014.0 1011.1 0.0
16/12:00am 30.8 24.5 -0.8 13 15.2 ESE 22 30 12 16 1014.1 1011.2 0.0
 
Date/Time
CST
Temp
°C
App
Temp
°C
Dew
Point
°C
Rel
Hum
%
Delta-T
°C
Wind Press
QNH
hPa
Press
MSL
hPa
Rain since
9am
mm
Dir  Spd
km/h
Gust
km/h
Spd
kts
Gust
kts
15/11:30pm 31.0 25.5 0.4 14 15.1 ESE 19 24 10 13 1014.2 1011.3 0.0
15/11:00pm 31.2 27.4 1.5 15 14.9 ESE 11 13 6 7 1014.2 1011.3 0.0
15/10:30pm 31.7 27.9 1.9 15 15.1 ESE 11 13 6 7 1014.0 1011.1 0.0
15/10:00pm 31.6 28.3 2.7 16 14.9 ESE 9 11 5 6 1014.0 1011.1 0.0
15/09:30pm 32.8 29.4 1.8 14 15.8 ESE 9 13 5 7 1013.7 1010.8 0.0
15/09:00pm 33.7 30.0 2.5 14 16.2 SE 11 13 6 7 1013.5 1010.6 0.0
15/08:30pm 34.1 30.5 2.8 14 16.4 SE 11 13 6 7 1013.3 1010.4 0.0
15/08:00pm 34.8 31.1 2.3 13 16.9 SE 11 15 6 8 1013.0 1010.0 0.0
15/07:30pm 35.7 31.9 1.9 12 17.6 SE 11 15 6 8 1012.6 1009.6 0.0
15/07:00pm 36.6 32.4 1.4 11 18.2 SSE 13 19 7 10 1011.8 1008.9 0.0
15/06:30pm 37.4 33.4 0.7 10 18.9 SSE 11 17 6 9 1011.5 1008.6 0.0
15/06:00pm 37.9 34.0 1.0 10 19.2 SE 11 19 6 10 1011.2 1008.3 0.0
15/05:30pm 37.8 33.5 1.0 10 19.1 SE 13 20 7 11 1010.9 1008.0 0.0
15/05:00pm 38.2 33.9 1.3 10 19.3 SE 13 17 7 9 1011.0 1008.1 0.0
15/04:30pm 37.9 32.5 1.0 10 19.2 S 19 32 10 17 1011.3 1008.4 0.0
15/04:00pm 38.2 33.9 1.3 10 19.3 ENE 13 33 7 18 1011.4 1008.5 0.0
15/03:30pm 37.8 33.1 1.0 10 19.1 SSE 15 26 8 14 1011.7 1008.8 0.0
15/03:00pm 38.0 34.1 1.1 10 19.2 SSW 11 22 6 12 1012.1 1009.1 0.0
15/02:30pm 36.8 32.4 0.2 10 18.6 SE 13 20 7 11 1012.8 1009.8 0.0
15/02:00pm 36.9 32.7 1.6 11 18.4 SSE 13 24 7 13 1013.2 1010.3 0.0
15/01:30pm 36.1 31.6 2.2 12 17.7 ENE 15 28 8 15 1013.7 1010.8 0.0
15/01:00pm 36.4 30.6 -0.1 10 18.5 E 20 30 11 16 1014.2 1011.3 0.0
15/12:30pm 35.9 30.4 -1.9 9 18.5 ESE 17 30 9 16 1014.6 1011.7 0.0
15/12:00pm 34.4 28.6 -1.6 10 17.5 E 19 30 10 16 1015.5 1012.6 0.0
15/11:30am 34.0 27.6 -1.9 10 17.4 ESE 22 32 12 17 1015.9 1013.0 0.0
15/11:00am 33.2 26.2 -3.9 9 17.3 ESE 24 32 13 17 1016.4 1013.5 0.0
15/10:30am 32.1 24.6 -4.7 9 16.7 E 26 33 14 18 1016.8 1013.9 0.0
15/10:00am 31.0 23.5 -4.1 10 16.0 ESE 26 33 14 18 1016.9 1014.0 0.0
15/09:30am 30.0 21.5 -3.6 11 15.3 E 32 37 17 20 1017.0 1014.1 0.0
15/09:00am 29.4 20.2 -4.1 11 15.1 E 35 48 19 26 1016.5 1013.6 0.0
15/08:30am 27.8 19.3 -3.1 13 14.0 ESE 32 43 17 23 1016.3 1013.4 0.0
15/08:00am 27.3 18.2 -3.5 13 13.8 ESE 35 46 19 25 1015.8 1012.9 0.0
15/07:30am 26.9 18.2 -3.8 13 13.6 ESE 33 46 18 25 1015.5 1012.6 0.0
15/07:00am 26.7 17.7 -3.0 14 13.4 ESE 35 48 19 26 1015.1 1012.1 0.0
15/06:30am 26.8 18.2 -2.9 14 13.4 ESE 33 48 18 26 1014.7 1011.8 0.0
15/06:00am 27.2 18.5 -3.6 13 13.8 ESE 33 41 18 22 1014.3 1011.4 0.0
15/05:30am 27.6 19.1 -3.3 13 13.9 ESE 32 41 17 22 1014.0 1011.1 0.0
15/05:00am 27.9 19.4 -3.0 13 14.0 ESE 32 41 17 22 1013.7 1010.8 0.0
15/04:30am 28.3 19.7 -2.7 13 14.2 ESE 33 43 18 23 1013.7 1010.8 0.0
15/04:00am 28.6 20.6 -2.5 13 14.3 ESE 30 39 16 21 1013.5 1010.6 0.0
15/03:30am 28.8 20.9 -1.3 14 14.2 ESE 30 43 16 23 1013.3 1010.4 0.0
15/03:00am 28.9 21.2 -0.3 15 14.0 ESE 30 37 16 20 1013.3 1010.4 0.0
15/02:30am 29.3 21.2 0.0 15 14.2 ESE 32 43 17 23 1013.3 1010.4 0.0
15/02:00am 29.8 22.4 2.1 17 13.9 ESE 30 37 16 20 1013.3 1010.4 0.0
15/01:30am 30.2 23.8 3.3 18 13.9 ESE 26 39 14 21 1013.2 1010.3 0.0
15/01:00am 30.7 23.6 3.7 18 14.0 ESE 30 39 16 21 1013.3 1010.4 0.0
15/12:30am 31.4 24.0 4.2 18 14.3 ESE 32 39 17 21 1013.3 1010.4 0.0
15/12:00am 31.7 26.2 6.0 20 14.0 ESE 24 30 13 16 1013.3 1010.4 0.0

Other Formats:

Comma delimited format used in spreadsheet applications
http://www.bom.gov.au/fwo/IDD60801/IDD60801.94238.axf

JavaScript Object Notation format (JSON) in row-major order
http://www.bom.gov.au/fwo/IDD60801/IDD60801.94238.json